sensor_id;sensor_type;location;lat;lon;timestamp;pressure;altitude;pressure_sealevel;temperature;humidity
23166;BME280;11751;42.700;24.170;2023-04-24T00:01:31;93783.78;;;8.66;nan
23166;BME280;11751;42.700;24.170;2023-04-24T00:03:59;93788.22;;;8.61;nan
23166;BME280;11751;42.700;24.170;2023-04-24T00:06:27;93790.56;;;8.43;nan
23166;BME280;11751;42.700;24.170;2023-04-24T00:09:01;93790.16;;;8.39;nan
23166;BME280;11751;42.700;24.170;2023-04-24T00:11:28;93788.34;;;8.48;nan
23166;BME280;11751;42.700;24.170;2023-04-24T00:13:54;93787.06;;;8.49;nan
23166;BME280;11751;42.700;24.170;2023-04-24T00:16:19;93785.75;;;8.50;nan
23166;BME280;11751;42.700;24.170;2023-04-24T00:18:45;93787.47;;;8.53;nan
23166;BME280;11751;42.700;24.170;2023-04-24T00:21:11;93776.88;;;8.59;nan
23166;BME280;11751;42.700;24.170;2023-04-24T00:23:36;93770.75;;;8.68;nan
23166;BME280;11751;42.700;24.170;2023-04-24T00:26:02;93763.19;;;8.84;nan
23166;BME280;11751;42.700;24.170;2023-04-24T00:28:27;93767.69;;;8.87;nan
23166;BME280;11751;42.700;24.170;2023-04-24T00:30:53;93765.78;;;8.74;nan
23166;BME280;11751;42.700;24.170;2023-04-24T00:33:19;93765.94;;;8.69;nan
23166;BME280;11751;42.700;24.170;2023-04-24T00:35:45;93769.47;;;8.69;nan
23166;BME280;11751;42.700;24.170;2023-04-24T00:38:10;93768.75;;;8.76;nan
23166;BME280;11751;42.700;24.170;2023-04-24T00:40:36;93762.59;;;8.70;nan
23166;BME280;11751;42.700;24.170;2023-04-24T00:43:01;93751.66;;;8.80;nan
23166;BME280;11751;42.700;24.170;2023-04-24T00:45:27;93762.50;;;8.48;nan
23166;BME280;11751;42.700;24.170;2023-04-24T00:47:53;93757.19;;;8.65;nan
23166;BME280;11751;42.700;24.170;2023-04-24T00:50:20;93760.19;;;8.74;nan
23166;BME280;11751;42.700;24.170;2023-04-24T00:52:46;93759.06;;;8.77;nan
23166;BME280;11751;42.700;24.170;2023-04-24T00:55:12;93761.31;;;8.79;nan
23166;BME280;11751;42.700;24.170;2023-04-24T00:57:38;93765.78;;;8.74;nan
23166;BME280;11751;42.700;24.170;2023-04-24T01:00:05;93761.09;;;8.69;nan
23166;BME280;11751;42.700;24.170;2023-04-24T01:02:38;93757.94;;;8.65;nan
23166;BME280;11751;42.700;24.170;2023-04-24T01:05:07;93758.91;;;8.75;nan
23166;BME280;11751;42.700;24.170;2023-04-24T01:07:34;93760.19;;;8.74;nan
23166;BME280;11751;42.700;24.170;2023-04-24T01:09:59;93757.78;;;8.78;nan
23166;BME280;11751;42.700;24.170;2023-04-24T01:12:25;93751.28;;;8.83;nan
23166;BME280;11751;42.700;24.170;2023-04-24T01:14:51;93754.28;;;8.85;nan
23166;BME280;11751;42.700;24.170;2023-04-24T01:17:16;93752.78;;;8.84;nan
23166;BME280;11751;42.700;24.170;2023-04-24T01:19:42;93759.47;;;8.81;nan
23166;BME280;11751;42.700;24.170;2023-04-24T01:22:14;93758.38;;;8.84;nan
23166;BME280;11751;42.700;24.170;2023-04-24T01:24:40;93750.91;;;8.79;nan
23166;BME280;11751;42.700;24.170;2023-04-24T01:27:06;93753.31;;;8.83;nan
23166;BME280;11751;42.700;24.170;2023-04-24T01:29:32;93755.19;;;8.80;nan
23166;BME280;11751;42.700;24.170;2023-04-24T01:31:58;93750.91;;;8.79;nan
23166;BME280;11751;42.700;24.170;2023-04-24T01:34:24;93743.13;;;8.85;nan
23166;BME280;11751;42.700;24.170;2023-04-24T01:36:50;93745.16;;;8.85;nan
23166;BME280;11751;42.700;24.170;2023-04-24T01:39:16;93747.56;;;8.88;nan
23166;BME280;11751;42.700;24.170;2023-04-24T01:41:42;93746.84;;;8.88;nan
23166;BME280;11751;42.700;24.170;2023-04-24T01:44:07;93739.00;;;8.86;nan
23166;BME280;11751;42.700;24.170;2023-04-24T01:46:33;93734.34;;;8.81;nan
23166;BME280;11751;42.700;24.170;2023-04-24T01:49:00;93734.34;;;8.81;nan
23166;BME280;11751;42.700;24.170;2023-04-24T01:51:25;93733.94;;;8.70;nan
23166;BME280;11751;42.700;24.170;2023-04-24T01:53:51;93732.22;;;8.59;nan
23166;BME280;11751;42.700;24.170;2023-04-24T01:56:16;93726.28;;;8.63;nan
23166;BME280;11751;42.700;24.170;2023-04-24T01:58:43;93727.94;;;8.58;nan
23166;BME280;11751;42.700;24.170;2023-04-24T02:01:08;93732.56;;;8.48;nan
23166;BME280;11751;42.700;24.170;2023-04-24T02:03:34;93719.53;;;8.44;nan
23166;BME280;11751;42.700;24.170;2023-04-24T02:05:59;93723.66;;;8.50;nan
23166;BME280;11751;42.700;24.170;2023-04-24T02:08:25;93720.09;;;8.49;nan
23166;BME280;11751;42.700;24.170;2023-04-24T02:10:50;93722.31;;;8.44;nan
23166;BME280;11751;42.700;24.170;2023-04-24T02:13:16;93732.91;;;8.45;nan
23166;BME280;11751;42.700;24.170;2023-04-24T02:15:41;93727.91;;;8.44;nan
23166;BME280;11751;42.700;24.170;2023-04-24T02:18:07;93717.63;;;8.39;nan
23166;BME280;11751;42.700;24.170;2023-04-24T02:20:32;93713.19;;;8.36;nan
23166;BME280;11751;42.700;24.170;2023-04-24T02:23:00;93716.13;;;8.38;nan
23166;BME280;11751;42.700;24.170;2023-04-24T02:25:26;93717.63;;;8.39;nan
23166;BME280;11751;42.700;24.170;2023-04-24T02:27:51;93710.97;;;8.42;nan
23166;BME280;11751;42.700;24.170;2023-04-24T02:30:16;93713.19;;;8.36;nan
23166;BME280;11751;42.700;24.170;2023-04-24T02:32:42;93702.72;;;8.29;nan
23166;BME280;11751;42.700;24.170;2023-04-24T02:35:08;93711.09;;;8.29;nan
23166;BME280;11751;42.700;24.170;2023-04-24T02:37:33;93715.69;;;8.19;nan
23166;BME280;11751;42.700;24.170;2023-04-24T02:39:58;93717.47;;;8.09;nan
23166;BME280;11751;42.700;24.170;2023-04-24T02:42:24;93712.66;;;8.09;nan
23166;BME280;11751;42.700;24.170;2023-04-24T02:44:49;93715.59;;;8.04;nan
23166;BME280;11751;42.700;24.170;2023-04-24T02:47:16;93710.69;;;7.89;nan
23166;BME280;11751;42.700;24.170;2023-04-24T02:49:41;93707.84;;;7.82;nan
23166;BME280;11751;42.700;24.170;2023-04-24T02:52:07;93715.06;;;7.77;nan
23166;BME280;11751;42.700;24.170;2023-04-24T02:54:32;93710.63;;;7.54;nan
23166;BME280;11751;42.700;24.170;2023-04-24T02:56:58;93701.06;;;7.42;nan
23166;BME280;11751;42.700;24.170;2023-04-24T02:59:23;93704.66;;;7.50;nan
23166;BME280;11751;42.700;24.170;2023-04-24T03:01:49;93705.00;;;7.47;nan
23166;BME280;11751;42.700;24.170;2023-04-24T03:04:14;93697.41;;;7.47;nan
23166;BME280;11751;42.700;24.170;2023-04-24T03:06:40;93702.16;;;7.39;nan
23166;BME280;11751;42.700;24.170;2023-04-24T03:09:06;93706.78;;;7.37;nan
23166;BME280;11751;42.700;24.170;2023-04-24T03:11:31;93713.47;;;7.34;nan
23166;BME280;11751;42.700;24.170;2023-04-24T03:13:56;93702.84;;;7.32;nan
23166;BME280;11751;42.700;24.170;2023-04-24T03:16:22;93708.63;;;7.34;nan
23166;BME280;11751;42.700;24.170;2023-04-24T03:18:47;93700.97;;;7.27;nan
23166;BME280;11751;42.700;24.170;2023-04-24T03:21:12;93708.19;;;7.23;nan
23166;BME280;11751;42.700;24.170;2023-04-24T03:23:38;93707.56;;;7.17;nan
23166;BME280;11751;42.700;24.170;2023-04-24T03:26:03;93702.34;;;7.13;nan
23166;BME280;11751;42.700;24.170;2023-04-24T03:28:29;93703.63;;;7.12;nan
23166;BME280;11751;42.700;24.170;2023-04-24T03:30:54;93699.69;;;7.08;nan
23166;BME280;11751;42.700;24.170;2023-04-24T03:33:20;93697.72;;;6.95;nan
23166;BME280;11751;42.700;24.170;2023-04-24T03:35:45;93701.09;;;7.01;nan
23166;BME280;11751;42.700;24.170;2023-04-24T03:38:10;93707.31;;;7.07;nan
23166;BME280;11751;42.700;24.170;2023-04-24T03:40:36;93702.69;;;7.10;nan
23166;BME280;11751;42.700;24.170;2023-04-24T03:43:01;93698.19;;;7.07;nan
23166;BME280;11751;42.700;24.170;2023-04-24T03:45:27;93703.75;;;7.07;nan
23166;BME280;11751;42.700;24.170;2023-04-24T03:47:52;93710.97;;;7.23;nan
23166;BME280;11751;42.700;24.170;2023-04-24T03:50:18;93707.22;;;7.20;nan
23166;BME280;11751;42.700;24.170;2023-04-24T03:52:43;93713.59;;;7.28;nan
23166;BME280;11751;42.700;24.170;2023-04-24T03:55:09;93713.25;;;7.32;nan
23166;BME280;11751;42.700;24.170;2023-04-24T03:57:39;93706.59;;;7.35;nan
23166;BME280;11751;42.700;24.170;2023-04-24T04:00:05;93715.41;;;7.46;nan
23166;BME280;11751;42.700;24.170;2023-04-24T04:02:31;93706.56;;;7.55;nan
23166;BME280;11751;42.700;24.170;2023-04-24T04:04:56;93719.09;;;7.69;nan
23166;BME280;11751;42.700;24.170;2023-04-24T04:07:22;93712.22;;;7.70;nan
23166;BME280;11751;42.700;24.170;2023-04-24T04:09:47;93716.19;;;7.82;nan
23166;BME280;11751;42.700;24.170;2023-04-24T04:12:12;93716.63;;;7.86;nan
23166;BME280;11751;42.700;24.170;2023-04-24T04:14:38;93718.88;;;7.95;nan
23166;BME280;11751;42.700;24.170;2023-04-24T04:17:03;93725.25;;;8.03;nan
23166;BME280;11751;42.700;24.170;2023-04-24T04:19:29;93713.16;;;8.00;nan
23166;BME280;11751;42.700;24.170;2023-04-24T04:21:54;93717.66;;;8.11;nan
23166;BME280;11751;42.700;24.170;2023-04-24T04:24:21;93721.66;;;8.23;nan
23166;BME280;11751;42.700;24.170;2023-04-24T04:26:47;93714.03;;;8.23;nan
23166;BME280;11751;42.700;24.170;2023-04-24T04:29:16;93716.50;;;8.27;nan
23166;BME280;11751;42.700;24.170;2023-04-24T04:31:42;93726.81;;;8.47;nan
23166;BME280;11751;42.700;24.170;2023-04-24T04:34:07;93720.78;;;8.35;nan
23166;BME280;11751;42.700;24.170;2023-04-24T04:36:33;93726.59;;;8.45;nan
23166;BME280;11751;42.700;24.170;2023-04-24T04:39:02;93715.75;;;8.34;nan
23166;BME280;11751;42.700;24.170;2023-04-24T04:41:27;93724.97;;;8.56;nan
23166;BME280;11751;42.700;24.170;2023-04-24T04:43:53;93725.91;;;8.66;nan
23166;BME280;11751;42.700;24.170;2023-04-24T04:46:18;93725.53;;;8.62;nan
23166;BME280;11751;42.700;24.170;2023-04-24T04:48:44;93735.59;;;8.65;nan
23166;BME280;11751;42.700;24.170;2023-04-24T04:51:09;93727.47;;;8.82;nan
23166;BME280;11751;42.700;24.170;2023-04-24T04:53:35;93725.63;;;8.92;nan
23166;BME280;11751;42.700;24.170;2023-04-24T04:56:00;93718.72;;;8.86;nan
23166;BME280;11751;42.700;24.170;2023-04-24T04:58:26;93717.25;;;9.07;nan
23166;BME280;11751;42.700;24.170;2023-04-24T05:00:51;93719.16;;;9.27;nan
23166;BME280;11751;42.700;24.170;2023-04-24T05:03:17;93727.91;;;9.31;nan
23166;BME280;11751;42.700;24.170;2023-04-24T05:05:43;93728.66;;;9.39;nan
23166;BME280;11751;42.700;24.170;2023-04-24T05:08:08;93715.25;;;9.60;nan
23166;BME280;11751;42.700;24.170;2023-04-24T05:10:34;93713.75;;;9.29;nan
23166;BME280;11751;42.700;24.170;2023-04-24T05:13:00;93708.72;;;9.80;nan
23166;BME280;11751;42.700;24.170;2023-04-24T05:15:26;93707.31;;;10.33;nan
23166;BME280;11751;42.700;24.170;2023-04-24T05:17:51;93708.28;;;10.21;nan
23166;BME280;11751;42.700;24.170;2023-04-24T05:20:17;93702.69;;;10.67;nan
23166;BME280;11751;42.700;24.170;2023-04-24T05:22:42;93697.19;;;11.16;nan
23166;BME280;11751;42.700;24.170;2023-04-24T05:25:08;93698.75;;;11.58;nan
23166;BME280;11751;42.700;24.170;2023-04-24T05:27:33;93698.38;;;12.03;nan
23166;BME280;11751;42.700;24.170;2023-04-24T05:29:59;93697.47;;;12.17;nan
23166;BME280;11751;42.700;24.170;2023-04-24T05:32:24;93690.38;;;12.16;nan
23166;BME280;11751;42.700;24.170;2023-04-24T05:34:52;93701.66;;;12.09;nan
23166;BME280;11751;42.700;24.170;2023-04-24T05:37:17;93706.84;;;12.12;nan
23166;BME280;11751;42.700;24.170;2023-04-24T05:39:42;93696.53;;;11.98;nan
23166;BME280;11751;42.700;24.170;2023-04-24T05:42:08;93705.53;;;11.96;nan
23166;BME280;11751;42.700;24.170;2023-04-24T05:44:33;93699.84;;;12.04;nan
23166;BME280;11751;42.700;24.170;2023-04-24T05:46:59;93702.91;;;11.98;nan
23166;BME280;11751;42.700;24.170;2023-04-24T05:49:24;93707.03;;;11.97;nan
23166;BME280;11751;42.700;24.170;2023-04-24T05:51:50;93699.56;;;11.93;nan
23166;BME280;11751;42.700;24.170;2023-04-24T05:54:15;93696.44;;;11.89;nan
23166;BME280;11751;42.700;24.170;2023-04-24T05:56:41;93693.75;;;11.74;nan
23166;BME280;11751;42.700;24.170;2023-04-24T05:59:08;93700.75;;;11.65;nan
23166;BME280;11751;42.700;24.170;2023-04-24T06:01:33;93691.81;;;11.84;nan
23166;BME280;11751;42.700;24.170;2023-04-24T06:03:58;93690.00;;;11.79;nan
23166;BME280;11751;42.700;24.170;2023-04-24T06:06:24;93696.31;;;11.62;nan
23166;BME280;11751;42.700;24.170;2023-04-24T06:08:51;93695.91;;;11.66;nan
23166;BME280;11751;42.700;24.170;2023-04-24T06:11:16;93695.13;;;11.65;nan
23166;BME280;11751;42.700;24.170;2023-04-24T06:13:42;93695.25;;;11.75;nan
23166;BME280;11751;42.700;24.170;2023-04-24T06:16:07;93698.22;;;11.77;nan
23166;BME280;11751;42.700;24.170;2023-04-24T06:18:33;93694.31;;;11.96;nan
23166;BME280;11751;42.700;24.170;2023-04-24T06:20:58;93695.78;;;11.97;nan
23166;BME280;11751;42.700;24.170;2023-04-24T06:23:24;93697.59;;;12.02;nan
23166;BME280;11751;42.700;24.170;2023-04-24T06:25:49;93697.53;;;12.10;nan
23166;BME280;11751;42.700;24.170;2023-04-24T06:28:15;93698.59;;;12.14;nan
23166;BME280;11751;42.700;24.170;2023-04-24T06:30:40;93693.41;;;12.28;nan
23166;BME280;11751;42.700;24.170;2023-04-24T06:33:06;93690.38;;;12.16;nan
23166;BME280;11751;42.700;24.170;2023-04-24T06:35:31;93695.50;;;11.86;nan
23166;BME280;11751;42.700;24.170;2023-04-24T06:37:57;93701.41;;;12.31;nan
23166;BME280;11751;42.700;24.170;2023-04-24T06:40:22;93704.72;;;12.20;nan
23166;BME280;11751;42.700;24.170;2023-04-24T06:42:48;93698.22;;;12.52;nan
23166;BME280;11751;42.700;24.170;2023-04-24T06:45:13;93699.88;;;12.81;nan
23166;BME280;11751;42.700;24.170;2023-04-24T06:47:38;93698.28;;;13.04;nan
23166;BME280;11751;42.700;24.170;2023-04-24T06:50:04;93697.72;;;13.06;nan
23166;BME280;11751;42.700;24.170;2023-04-24T06:52:30;93703.50;;;13.08;nan
23166;BME280;11751;42.700;24.170;2023-04-24T06:55:02;93696.88;;;13.13;nan
23166;BME280;11751;42.700;24.170;2023-04-24T06:57:28;93698.28;;;13.04;nan
23166;BME280;11751;42.700;24.170;2023-04-24T06:59:53;93704.88;;;13.16;nan
23166;BME280;11751;42.700;24.170;2023-04-24T07:02:19;93713.94;;;12.98;nan
23166;BME280;11751;42.700;24.170;2023-04-24T07:04:45;93703.69;;;12.93;nan
23166;BME280;11751;42.700;24.170;2023-04-24T07:07:14;93709.09;;;13.08;nan
23166;BME280;11751;42.700;24.170;2023-04-24T07:09:40;93700.84;;;13.10;nan
23166;BME280;11751;42.700;24.170;2023-04-24T07:12:09;93702.06;;;13.16;nan
23166;BME280;11751;42.700;24.170;2023-04-24T07:14:39;93704.34;;;13.54;nan
23166;BME280;11751;42.700;24.170;2023-04-24T07:17:05;93693.88;;;13.73;nan
23166;BME280;11751;42.700;24.170;2023-04-24T07:19:32;93702.09;;;13.97;nan
23166;BME280;11751;42.700;24.170;2023-04-24T07:21:58;93689.44;;;14.34;nan
23166;BME280;11751;42.700;24.170;2023-04-24T07:24:24;93702.06;;;14.80;nan
23166;BME280;11751;42.700;24.170;2023-04-24T07:26:51;93707.41;;;14.95;nan
23166;BME280;11751;42.700;24.170;2023-04-24T07:29:17;93698.94;;;15.05;nan
23166;BME280;11751;42.700;24.170;2023-04-24T07:31:43;93697.59;;;15.25;nan
23166;BME280;11751;42.700;24.170;2023-04-24T07:34:09;93701.00;;;15.14;nan
23166;BME280;11751;42.700;24.170;2023-04-24T07:36:34;93702.63;;;15.17;nan
23166;BME280;11751;42.700;24.170;2023-04-24T07:39:00;93687.25;;;14.80;nan
23166;BME280;11751;42.700;24.170;2023-04-24T07:41:25;93703.03;;;15.23;nan
23166;BME280;11751;42.700;24.170;2023-04-24T07:43:52;93701.56;;;15.41;nan
23166;BME280;11751;42.700;24.170;2023-04-24T07:46:19;93698.88;;;15.42;nan
23166;BME280;11751;42.700;24.170;2023-04-24T07:48:45;93697.81;;;15.47;nan
23166;BME280;11751;42.700;24.170;2023-04-24T07:51:11;93693.44;;;15.65;nan
23166;BME280;11751;42.700;24.170;2023-04-24T07:53:38;93684.19;;;15.35;nan
23166;BME280;11751;42.700;24.170;2023-04-24T07:56:04;93690.28;;;15.41;nan
23166;BME280;11751;42.700;24.170;2023-04-24T07:58:29;93697.63;;;15.64;nan
23166;BME280;11751;42.700;24.170;2023-04-24T08:00:55;93690.78;;;15.67;nan
23166;BME280;11751;42.700;24.170;2023-04-24T08:03:20;93675.19;;;15.66;nan
23166;BME280;11751;42.700;24.170;2023-04-24T08:05:46;93686.84;;;15.42;nan
23166;BME280;11751;42.700;24.170;2023-04-24T08:08:12;93687.31;;;15.39;nan
23166;BME280;11751;42.700;24.170;2023-04-24T08:10:37;93682.47;;;15.69;nan
23166;BME280;11751;42.700;24.170;2023-04-24T08:13:03;93676.06;;;15.69;nan
23166;BME280;11751;42.700;24.170;2023-04-24T08:15:28;93674.69;;;15.79;nan
23166;BME280;11751;42.700;24.170;2023-04-24T08:17:54;93678.16;;;15.68;nan
23166;BME280;11751;42.700;24.170;2023-04-24T08:20:19;93677.19;;;15.85;nan
23166;BME280;11751;42.700;24.170;2023-04-24T08:22:44;93661.63;;;15.74;nan
23166;BME280;11751;42.700;24.170;2023-04-24T08:25:12;93675.41;;;16.10;nan
23166;BME280;11751;42.700;24.170;2023-04-24T08:27:38;93665.09;;;16.45;nan
23166;BME280;11751;42.700;24.170;2023-04-24T08:30:04;93671.66;;;16.80;nan
23166;BME280;11751;42.700;24.170;2023-04-24T08:32:30;93664.88;;;17.06;nan
23166;BME280;11751;42.700;24.170;2023-04-24T08:34:56;93661.84;;;17.24;nan
23166;BME280;11751;42.700;24.170;2023-04-24T08:37:22;93664.75;;;17.36;nan
23166;BME280;11751;42.700;24.170;2023-04-24T08:39:49;93658.41;;;17.81;nan
23166;BME280;11751;42.700;24.170;2023-04-24T08:42:15;93651.00;;;17.42;nan
23166;BME280;11751;42.700;24.170;2023-04-24T08:44:42;93645.56;;;17.57;nan
23166;BME280;11751;42.700;24.170;2023-04-24T08:47:07;93649.16;;;18.15;nan
23166;BME280;11751;42.700;24.170;2023-04-24T08:49:33;93644.22;;;18.38;nan
23166;BME280;11751;42.700;24.170;2023-04-24T08:52:00;93644.06;;;18.48;nan
23166;BME280;11751;42.700;24.170;2023-04-24T08:54:26;93654.31;;;18.53;nan
23166;BME280;11751;42.700;24.170;2023-04-24T08:56:53;93645.25;;;18.68;nan
23166;BME280;11751;42.700;24.170;2023-04-24T08:59:21;93640.75;;;18.88;nan
23166;BME280;11751;42.700;24.170;2023-04-24T09:01:48;93638.56;;;19.11;nan
23166;BME280;11751;42.700;24.170;2023-04-24T09:04:17;93632.50;;;19.16;nan
23166;BME280;11751;42.700;24.170;2023-04-24T09:06:45;93637.91;;;18.88;nan
23166;BME280;11751;42.700;24.170;2023-04-24T09:09:10;93623.97;;;18.91;nan
23166;BME280;11751;42.700;24.170;2023-04-24T09:11:37;93631.91;;;19.06;nan
23166;BME280;11751;42.700;24.170;2023-04-24T09:14:03;93628.22;;;19.29;nan
23166;BME280;11751;42.700;24.170;2023-04-24T09:16:28;93620.34;;;19.27;nan
23166;BME280;11751;42.700;24.170;2023-04-24T09:18:55;93630.78;;;19.36;nan
23166;BME280;11751;42.700;24.170;2023-04-24T09:21:22;93625.13;;;19.50;nan
23166;BME280;11751;42.700;24.170;2023-04-24T09:23:58;93617.84;;;19.33;nan
23166;BME280;11751;42.700;24.170;2023-04-24T09:26:24;93627.56;;;19.55;nan
23166;BME280;11751;42.700;24.170;2023-04-24T09:28:50;93612.56;;;19.66;nan
23166;BME280;11751;42.700;24.170;2023-04-24T09:31:19;93613.31;;;19.80;nan
23166;BME280;11751;42.700;24.170;2023-04-24T09:34:03;93607.16;;;19.97;nan
23166;BME280;11751;42.700;24.170;2023-04-24T09:36:32;93606.94;;;20.20;nan
23166;BME280;11751;42.700;24.170;2023-04-24T09:39:02;93599.91;;;20.21;nan
23166;BME280;11751;42.700;24.170;2023-04-24T09:41:28;93605.16;;;20.40;nan
23166;BME280;11751;42.700;24.170;2023-04-24T09:44:10;93604.88;;;20.63;nan
23166;BME280;11751;42.700;24.170;2023-04-24T09:46:35;93595.44;;;20.45;nan
23166;BME280;11751;42.700;24.170;2023-04-24T09:49:14;93592.25;;;20.65;nan
23166;BME280;11751;42.700;24.170;2023-04-24T09:51:43;93596.75;;;20.70;nan
23166;BME280;11751;42.700;24.170;2023-04-24T09:54:18;93592.34;;;20.81;nan
23166;BME280;11751;42.700;24.170;2023-04-24T09:56:49;93590.91;;;20.95;nan
23166;BME280;11751;42.700;24.170;2023-04-24T09:59:17;93578.84;;;21.10;nan
23166;BME280;11751;42.700;24.170;2023-04-24T10:01:43;93578.16;;;21.25;nan
23166;BME280;11751;42.700;24.170;2023-04-24T10:04:39;93579.16;;;21.60;nan
23166;BME280;11751;42.700;24.170;2023-04-24T10:07:05;93572.13;;;21.48;nan
23166;BME280;11751;42.700;24.170;2023-04-24T10:09:32;93578.22;;;21.56;nan
23166;BME280;11751;42.700;24.170;2023-04-24T10:11:59;93560.22;;;21.67;nan
23166;BME280;11751;42.700;24.170;2023-04-24T10:14:25;93551.69;;;21.67;nan
23166;BME280;11751;42.700;24.170;2023-04-24T10:16:54;93557.84;;;21.77;nan
23166;BME280;11751;42.700;24.170;2023-04-24T10:19:25;93561.63;;;21.37;nan
23166;BME280;11751;42.700;24.170;2023-04-24T10:21:50;93553.16;;;21.68;nan
23166;BME280;11751;42.700;24.170;2023-04-24T10:24:17;93547.34;;;21.81;nan
23166;BME280;11751;42.700;24.170;2023-04-24T10:26:45;93539.72;;;21.86;nan
23166;BME280;11751;42.700;24.170;2023-04-24T10:29:17;93546.19;;;22.19;nan
23166;BME280;11751;42.700;24.170;2023-04-24T10:31:43;93541.16;;;22.50;nan
23166;BME280;11751;42.700;24.170;2023-04-24T10:34:11;93545.72;;;22.25;nan
23166;BME280;11751;42.700;24.170;2023-04-24T10:36:44;93537.16;;;22.40;nan
23166;BME280;11751;42.700;24.170;2023-04-24T10:39:12;93544.06;;;22.68;nan
23166;BME280;11751;42.700;24.170;2023-04-24T10:41:39;93534.97;;;22.08;nan
23166;BME280;11751;42.700;24.170;2023-04-24T10:44:06;93533.81;;;21.82;nan
23166;BME280;11751;42.700;24.170;2023-04-24T10:46:32;93532.63;;;21.87;nan
23166;BME280;11751;42.700;24.170;2023-04-24T10:48:58;93534.06;;;22.03;nan
23166;BME280;11751;42.700;24.170;2023-04-24T10:51:25;93536.97;;;21.88;nan
23166;BME280;11751;42.700;24.170;2023-04-24T10:56:52;93528.16;;;21.22;nan
23166;BME280;11751;42.700;24.170;2023-04-24T10:59:25;93528.38;;;21.42;nan
23166;BME280;11751;42.700;24.170;2023-04-24T11:01:54;93519.53;;;21.51;nan
23166;BME280;11751;42.700;24.170;2023-04-24T11:04:30;93528.06;;;21.20;nan
23166;BME280;11751;42.700;24.170;2023-04-24T11:06:57;93528.16;;;21.22;nan
23166;BME280;11751;42.700;24.170;2023-04-24T11:09:26;93514.03;;;21.40;nan
23166;BME280;11751;42.700;24.170;2023-04-24T11:12:06;93515.22;;;20.62;nan
23166;BME280;11751;42.700;24.170;2023-04-24T11:20:07;93503.84;;;21.50;nan
23166;BME280;11751;42.700;24.170;2023-04-24T11:22:36;93499.06;;;21.70;nan
23166;BME280;11751;42.700;24.170;2023-04-24T11:25:04;93501.56;;;21.77;nan
23166;BME280;11751;42.700;24.170;2023-04-24T11:27:31;93488.41;;;22.19;nan
23166;BME280;11751;42.700;24.170;2023-04-24T11:34:51;93487.38;;;22.95;nan
23166;BME280;11751;42.700;24.170;2023-04-24T11:37:17;93488.59;;;22.90;nan
23166;BME280;11751;42.700;24.170;2023-04-24T11:39:50;93480.59;;;23.22;nan
23166;BME280;11751;42.700;24.170;2023-04-24T11:42:16;93477.41;;;23.31;nan
23166;BME280;11751;42.700;24.170;2023-04-24T11:44:42;93467.44;;;23.51;nan
23166;BME280;11751;42.700;24.170;2023-04-24T11:47:08;93474.06;;;23.56;nan
23166;BME280;11751;42.700;24.170;2023-04-24T11:49:36;93460.31;;;23.89;nan
23166;BME280;11751;42.700;24.170;2023-04-24T11:52:02;93459.00;;;24.12;nan
23166;BME280;11751;42.700;24.170;2023-04-24T11:54:27;93449.91;;;23.98;nan
23166;BME280;11751;42.700;24.170;2023-04-24T11:56:53;93459.16;;;23.77;nan
23166;BME280;11751;42.700;24.170;2023-04-24T11:59:18;93440.06;;;23.64;nan
23166;BME280;11751;42.700;24.170;2023-04-24T12:01:47;93447.88;;;23.81;nan
23166;BME280;11751;42.700;24.170;2023-04-24T12:04:14;93437.28;;;24.05;nan
23166;BME280;11751;42.700;24.170;2023-04-24T12:06:40;93433.72;;;24.25;nan
23166;BME280;11751;42.700;24.170;2023-04-24T12:09:05;93425.28;;;23.89;nan
23166;BME280;11751;42.700;24.170;2023-04-24T12:11:32;93426.13;;;23.54;nan
23166;BME280;11751;42.700;24.170;2023-04-24T12:13:57;93412.28;;;23.47;nan
23166;BME280;11751;42.700;24.170;2023-04-24T12:16:25;93407.97;;;23.85;nan
23166;BME280;11751;42.700;24.170;2023-04-24T12:18:51;93397.88;;;23.82;nan
23166;BME280;11751;42.700;24.170;2023-04-24T12:21:23;93395.97;;;24.10;nan
23166;BME280;11751;42.700;24.170;2023-04-24T12:23:54;93396.09;;;23.73;nan
23166;BME280;11751;42.700;24.170;2023-04-24T12:26:20;93399.72;;;23.17;nan
23166;BME280;11751;42.700;24.170;2023-04-24T12:28:48;93384.63;;;23.15;nan
23166;BME280;11751;42.700;24.170;2023-04-24T12:31:16;93384.72;;;23.17;nan
23166;BME280;11751;42.700;24.170;2023-04-24T12:33:42;93386.19;;;23.00;nan
23166;BME280;11751;42.700;24.170;2023-04-24T12:36:10;93375.03;;;23.06;nan
23166;BME280;11751;42.700;24.170;2023-04-24T12:38:37;93366.09;;;23.35;nan
23166;BME280;11751;42.700;24.170;2023-04-24T12:41:09;93362.97;;;23.27;nan
23166;BME280;11751;42.700;24.170;2023-04-24T12:43:35;93343.91;;;23.53;nan
23166;BME280;11751;42.700;24.170;2023-04-24T12:46:01;93351.97;;;23.39;nan
23166;BME280;11751;42.700;24.170;2023-04-24T12:48:27;93344.66;;;23.34;nan
23166;BME280;11751;42.700;24.170;2023-04-24T12:50:53;93346.22;;;23.00;nan
23166;BME280;11751;42.700;24.170;2023-04-24T12:53:19;93346.03;;;22.77;nan
23166;BME280;11751;42.700;24.170;2023-04-24T12:55:44;93361.31;;;22.48;nan
23166;BME280;11751;42.700;24.170;2023-04-24T12:58:10;93364.72;;;22.28;nan
23166;BME280;11751;42.700;24.170;2023-04-24T13:00:35;93382.47;;;22.09;nan
23166;BME280;11751;42.700;24.170;2023-04-24T13:03:02;93377.09;;;21.51;nan
23166;BME280;11751;42.700;24.170;2023-04-24T13:05:27;93372.75;;;21.17;nan
23166;BME280;11751;42.700;24.170;2023-04-24T13:07:53;93372.94;;;20.90;nan
23166;BME280;11751;42.700;24.170;2023-04-24T13:10:18;93373.06;;;20.63;nan
23166;BME280;11751;42.700;24.170;2023-04-24T13:12:44;93380.75;;;20.46;nan
23166;BME280;11751;42.700;24.170;2023-04-24T13:15:11;93387.44;;;20.08;nan
23166;BME280;11751;42.700;24.170;2023-04-24T13:17:37;93400.75;;;19.90;nan
23166;BME280;11751;42.700;24.170;2023-04-24T13:20:03;93417.00;;;19.47;nan
23166;BME280;11751;42.700;24.170;2023-04-24T13:22:28;93440.13;;;19.28;nan
23166;BME280;11751;42.700;24.170;2023-04-24T13:24:54;93464.34;;;18.53;nan